Terminal Aerodrome Forecast
Issued by NWS

Home | Current Version | Previous Version | Text Only | Print | Product List | Glossary On
Versions: 1 2 3 4 5 6 7 8 9 10 11 12 13 14 15 16 17 18 19 20 21 22 23 24
000
FTUS43 KDLH 250543
TAFHYR
TAF
KHYR 250543Z 2506/2606 30002KT P6SM OVC060
     FM250900 28002KT P6SM OVC025
      TEMPO 2511/2515 OVC008
     FM251500 29006KT 6SM BR VCSH OVC008
     FM251800 28007KT 6SM -SHRA OVC020
     FM260000 31007KT P6SM OVC050=

USA.gov is the U.S. government's official web portal to all federal, state and local government web resources and services.